sensor_id;sensor_type;location;lat;lon;timestamp;temperature;humidity
67054;SHT31;53960;51.826;5.850;2023-12-20T00:01:29;7.66;97.46
67054;SHT31;53960;51.826;5.850;2023-12-20T00:03:54;7.71;97.31
67054;SHT31;53960;51.826;5.850;2023-12-20T00:06:20;7.64;97.27
67054;SHT31;53960;51.826;5.850;2023-12-20T00:08:46;7.66;97.30
67054;SHT31;53960;51.826;5.850;2023-12-20T00:11:11;7.64;97.22
67054;SHT31;53960;51.826;5.850;2023-12-20T00:13:36;7.55;97.21
67054;SHT31;53960;51.826;5.850;2023-12-20T00:16:02;7.57;97.28
67054;SHT31;53960;51.826;5.850;2023-12-20T00:18:27;7.59;97.10
67054;SHT31;53960;51.826;5.850;2023-12-20T00:20:52;7.62;96.95
67054;SHT31;53960;51.826;5.850;2023-12-20T00:23:18;7.54;96.77
67054;SHT31;53960;51.826;5.850;2023-12-20T00:25:43;7.51;97.10
67054;SHT31;53960;51.826;5.850;2023-12-20T00:28:08;7.52;97.23
67054;SHT31;53960;51.826;5.850;2023-12-20T00:30:34;7.59;96.88
67054;SHT31;53960;51.826;5.850;2023-12-20T00:32:59;7.61;96.42
67054;SHT31;53960;51.826;5.850;2023-12-20T00:35:24;7.64;96.51
67054;SHT31;53960;51.826;5.850;2023-12-20T00:37:50;7.59;96.46
67054;SHT31;53960;51.826;5.850;2023-12-20T00:40:15;7.65;96.19
67054;SHT31;53960;51.826;5.850;2023-12-20T00:42:41;7.58;96.07
67054;SHT31;53960;51.826;5.850;2023-12-20T00:45:06;7.48;96.51
67054;SHT31;53960;51.826;5.850;2023-12-20T00:47:32;7.43;96.77
67054;SHT31;53960;51.826;5.850;2023-12-20T00:49:57;7.34;97.00
67054;SHT31;53960;51.826;5.850;2023-12-20T00:52:23;7.32;97.17
67054;SHT31;53960;51.826;5.850;2023-12-20T00:54:48;7.32;97.08
67054;SHT31;53960;51.826;5.850;2023-12-20T00:57:14;7.28;97.23
67054;SHT31;53960;51.826;5.850;2023-12-20T00:59:40;7.18;97.41
67054;SHT31;53960;51.826;5.850;2023-12-20T01:02:05;7.17;97.43
67054;SHT31;53960;51.826;5.850;2023-12-20T01:04:30;7.34;96.82
67054;SHT31;53960;51.826;5.850;2023-12-20T01:06:56;7.24;97.04
67054;SHT31;53960;51.826;5.850;2023-12-20T01:09:21;7.23;97.19
67054;SHT31;53960;51.826;5.850;2023-12-20T01:11:51;7.24;97.16
67054;SHT31;53960;51.826;5.850;2023-12-20T01:14:16;7.21;97.02
67054;SHT31;53960;51.826;5.850;2023-12-20T01:16:42;7.23;96.81
67054;SHT31;53960;51.826;5.850;2023-12-20T01:19:07;7.14;97.17
67054;SHT31;53960;51.826;5.850;2023-12-20T01:21:32;7.10;97.09
67054;SHT31;53960;51.826;5.850;2023-12-20T01:23:58;7.11;97.08
67054;SHT31;53960;51.826;5.850;2023-12-20T01:26:23;7.13;97.04
67054;SHT31;53960;51.826;5.850;2023-12-20T01:28:49;7.03;97.14
67054;SHT31;53960;51.826;5.850;2023-12-20T01:31:14;7.04;97.22
67054;SHT31;53960;51.826;5.850;2023-12-20T01:33:39;7.06;97.22
67054;SHT31;53960;51.826;5.850;2023-12-20T01:36:05;7.16;96.86
67054;SHT31;53960;51.826;5.850;2023-12-20T01:38:30;7.07;96.79
67054;SHT31;53960;51.826;5.850;2023-12-20T01:40:55;6.99;96.77
67054;SHT31;53960;51.826;5.850;2023-12-20T01:43:21;6.99;96.93
67054;SHT31;53960;51.826;5.850;2023-12-20T01:45:47;7.04;96.72
67054;SHT31;53960;51.826;5.850;2023-12-20T01:48:13;7.04;96.74
67054;SHT31;53960;51.826;5.850;2023-12-20T01:50:39;7.10;96.49
67054;SHT31;53960;51.826;5.850;2023-12-20T01:53:07;7.21;96.20
67054;SHT31;53960;51.826;5.850;2023-12-20T01:55:35;7.07;96.49
67054;SHT31;53960;51.826;5.850;2023-12-20T01:58:01;7.07;96.76
67054;SHT31;53960;51.826;5.850;2023-12-20T02:00:29;7.03;96.82
67054;SHT31;53960;51.826;5.850;2023-12-20T02:02:55;7.10;96.52
67054;SHT31;53960;51.826;5.850;2023-12-20T02:05:21;7.03;96.46
67054;SHT31;53960;51.826;5.850;2023-12-20T02:07:47;7.01;96.55
67054;SHT31;53960;51.826;5.850;2023-12-20T02:10:13;7.08;96.32
67054;SHT31;53960;51.826;5.850;2023-12-20T02:12:38;7.10;96.30
67054;SHT31;53960;51.826;5.850;2023-12-20T02:15:04;6.99;96.51
67054;SHT31;53960;51.826;5.850;2023-12-20T02:17:31;7.07;96.38
67054;SHT31;53960;51.826;5.850;2023-12-20T02:19:56;7.13;96.26
67054;SHT31;53960;51.826;5.850;2023-12-20T02:22:22;7.16;96.01
67054;SHT31;53960;51.826;5.850;2023-12-20T02:24:47;7.14;96.14
67054;SHT31;53960;51.826;5.850;2023-12-20T02:27:12;7.06;96.33
67054;SHT31;53960;51.826;5.850;2023-12-20T02:29:38;7.07;96.26
67054;SHT31;53960;51.826;5.850;2023-12-20T02:32:03;7.01;96.53
67054;SHT31;53960;51.826;5.850;2023-12-20T02:34:29;7.04;96.61
67054;SHT31;53960;51.826;5.850;2023-12-20T02:36:54;6.93;96.91
67054;SHT31;53960;51.826;5.850;2023-12-20T02:39:21;6.87;97.17
67054;SHT31;53960;51.826;5.850;2023-12-20T02:41:47;6.85;97.23
67054;SHT31;53960;51.826;5.850;2023-12-20T02:44:13;6.93;97.03
67054;SHT31;53960;51.826;5.850;2023-12-20T02:46:38;6.95;97.14
67054;SHT31;53960;51.826;5.850;2023-12-20T02:49:04;6.96;97.05
67054;SHT31;53960;51.826;5.850;2023-12-20T02:51:29;7.04;96.92
67054;SHT31;53960;51.826;5.850;2023-12-20T02:53:54;7.01;96.95
67054;SHT31;53960;51.826;5.850;2023-12-20T02:56:20;7.04;96.74
67054;SHT31;53960;51.826;5.850;2023-12-20T02:58:45;6.99;96.88
67054;SHT31;53960;51.826;5.850;2023-12-20T03:01:10;6.99;97.17
67054;SHT31;53960;51.826;5.850;2023-12-20T03:03:36;7.01;97.10
67054;SHT31;53960;51.826;5.850;2023-12-20T03:06:01;7.07;97.03
67054;SHT31;53960;51.826;5.850;2023-12-20T03:08:26;7.13;96.71
67054;SHT31;53960;51.826;5.850;2023-12-20T03:10:52;7.14;96.68
67054;SHT31;53960;51.826;5.850;2023-12-20T03:13:18;7.04;97.03
67054;SHT31;53960;51.826;5.850;2023-12-20T03:15:44;7.04;97.08
67054;SHT31;53960;51.826;5.850;2023-12-20T03:18:09;7.06;97.04
67054;SHT31;53960;51.826;5.850;2023-12-20T03:20:35;7.07;96.98
67054;SHT31;53960;51.826;5.850;2023-12-20T03:23:00;7.01;96.98
67054;SHT31;53960;51.826;5.850;2023-12-20T03:25:26;7.00;97.06
67054;SHT31;53960;51.826;5.850;2023-12-20T03:27:52;7.04;97.03
67054;SHT31;53960;51.826;5.850;2023-12-20T03:30:17;7.03;97.10
67054;SHT31;53960;51.826;5.850;2023-12-20T03:32:43;7.04;97.21
67054;SHT31;53960;51.826;5.850;2023-12-20T03:35:09;7.00;97.30
67054;SHT31;53960;51.826;5.850;2023-12-20T03:37:34;7.00;97.35
67054;SHT31;53960;51.826;5.850;2023-12-20T03:40:00;6.97;97.45
67054;SHT31;53960;51.826;5.850;2023-12-20T03:42:25;6.93;97.38
67054;SHT31;53960;51.826;5.850;2023-12-20T03:44:51;6.95;97.54
67054;SHT31;53960;51.826;5.850;2023-12-20T03:47:16;6.93;97.25
67054;SHT31;53960;51.826;5.850;2023-12-20T03:49:41;6.93;97.40
67054;SHT31;53960;51.826;5.850;2023-12-20T03:52:06;6.92;97.20
67054;SHT31;53960;51.826;5.850;2023-12-20T03:54:32;6.92;97.43
67054;SHT31;53960;51.826;5.850;2023-12-20T03:56:58;6.89;97.19
67054;SHT31;53960;51.826;5.850;2023-12-20T03:59:23;6.87;97.36
67054;SHT31;53960;51.826;5.850;2023-12-20T04:01:48;6.92;97.37
67054;SHT31;53960;51.826;5.850;2023-12-20T04:04:14;6.89;97.31
67054;SHT31;53960;51.826;5.850;2023-12-20T04:06:39;6.93;97.29
67054;SHT31;53960;51.826;5.850;2023-12-20T04:09:05;7.00;97.08
67054;SHT31;53960;51.826;5.850;2023-12-20T04:11:30;6.96;97.27
67054;SHT31;53960;51.826;5.850;2023-12-20T04:13:55;6.92;97.21
67054;SHT31;53960;51.826;5.850;2023-12-20T04:16:21;6.92;97.20
67054;SHT31;53960;51.826;5.850;2023-12-20T04:18:46;6.99;97.09
67054;SHT31;53960;51.826;5.850;2023-12-20T04:21:11;6.90;97.32
67054;SHT31;53960;51.826;5.850;2023-12-20T04:23:37;6.85;97.56
67054;SHT31;53960;51.826;5.850;2023-12-20T04:26:02;6.96;97.54
67054;SHT31;53960;51.826;5.850;2023-12-20T04:28:28;6.89;97.53
67054;SHT31;53960;51.826;5.850;2023-12-20T04:30:55;6.97;97.35
67054;SHT31;53960;51.826;5.850;2023-12-20T04:33:21;6.92;97.54
67054;SHT31;53960;51.826;5.850;2023-12-20T04:35:46;6.96;97.63
67054;SHT31;53960;51.826;5.850;2023-12-20T04:38:12;6.97;97.47
67054;SHT31;53960;51.826;5.850;2023-12-20T04:40:37;6.96;97.57
67054;SHT31;53960;51.826;5.850;2023-12-20T04:43:03;6.92;97.76
67054;SHT31;53960;51.826;5.850;2023-12-20T04:45:28;6.90;97.61
67054;SHT31;53960;51.826;5.850;2023-12-20T04:47:53;6.95;97.75
67054;SHT31;53960;51.826;5.850;2023-12-20T04:50:19;6.87;97.89
67054;SHT31;53960;51.826;5.850;2023-12-20T04:52:45;6.96;97.77
67054;SHT31;53960;51.826;5.850;2023-12-20T04:55:10;7.04;97.53
67054;SHT31;53960;51.826;5.850;2023-12-20T04:57:35;7.06;97.34
67054;SHT31;53960;51.826;5.850;2023-12-20T05:00:01;7.06;97.46
67054;SHT31;53960;51.826;5.850;2023-12-20T05:02:26;7.11;97.23
67054;SHT31;53960;51.826;5.850;2023-12-20T05:04:51;7.11;97.27
67054;SHT31;53960;51.826;5.850;2023-12-20T05:07:17;7.26;97.15
67054;SHT31;53960;51.826;5.850;2023-12-20T05:09:42;7.17;97.16
67054;SHT31;53960;51.826;5.850;2023-12-20T05:12:08;7.16;97.30
67054;SHT31;53960;51.826;5.850;2023-12-20T05:14:33;7.17;97.32
67054;SHT31;53960;51.826;5.850;2023-12-20T05:16:59;7.18;97.45
67054;SHT31;53960;51.826;5.850;2023-12-20T05:19:24;7.24;97.27
67054;SHT31;53960;51.826;5.850;2023-12-20T05:21:50;7.20;97.31
67054;SHT31;53960;51.826;5.850;2023-12-20T05:24:15;7.20;97.33
67054;SHT31;53960;51.826;5.850;2023-12-20T05:26:40;7.16;97.46
67054;SHT31;53960;51.826;5.850;2023-12-20T05:29:06;7.20;97.53
67054;SHT31;53960;51.826;5.850;2023-12-20T05:31:31;7.18;97.44
67054;SHT31;53960;51.826;5.850;2023-12-20T05:33:57;7.23;97.49
67054;SHT31;53960;51.826;5.850;2023-12-20T05:36:22;7.24;97.20
67054;SHT31;53960;51.826;5.850;2023-12-20T05:38:48;7.31;97.17
67054;SHT31;53960;51.826;5.850;2023-12-20T05:41:13;7.40;96.72
67054;SHT31;53960;51.826;5.850;2023-12-20T05:43:39;7.26;97.00
67054;SHT31;53960;51.826;5.850;2023-12-20T05:46:04;7.32;96.73
67054;SHT31;53960;51.826;5.850;2023-12-20T05:48:30;7.28;96.92
67054;SHT31;53960;51.826;5.850;2023-12-20T05:50:55;7.26;97.00
67054;SHT31;53960;51.826;5.850;2023-12-20T05:53:20;7.27;97.00
67054;SHT31;53960;51.826;5.850;2023-12-20T05:55:46;7.40;96.73
67054;SHT31;53960;51.826;5.850;2023-12-20T05:58:11;7.41;96.61
67054;SHT31;53960;51.826;5.850;2023-12-20T06:00:36;7.47;96.18
67054;SHT31;53960;51.826;5.850;2023-12-20T06:03:02;7.43;96.53
67054;SHT31;53960;51.826;5.850;2023-12-20T06:05:27;7.41;96.46
67054;SHT31;53960;51.826;5.850;2023-12-20T06:07:52;7.50;96.29
67054;SHT31;53960;51.826;5.850;2023-12-20T06:10:19;7.47;96.29
67054;SHT31;53960;51.826;5.850;2023-12-20T06:12:45;7.54;96.03
67054;SHT31;53960;51.826;5.850;2023-12-20T06:15:12;7.47;96.42
67054;SHT31;53960;51.826;5.850;2023-12-20T06:17:37;7.54;96.20
67054;SHT31;53960;51.826;5.850;2023-12-20T06:20:03;7.54;96.12
67054;SHT31;53960;51.826;5.850;2023-12-20T06:22:33;7.62;95.44
67054;SHT31;53960;51.826;5.850;2023-12-20T06:24:58;7.66;95.33
67054;SHT31;53960;51.826;5.850;2023-12-20T06:27:23;7.57;95.65
67054;SHT31;53960;51.826;5.850;2023-12-20T06:29:48;7.57;95.68
67054;SHT31;53960;51.826;5.850;2023-12-20T06:32:14;7.61;95.49
67054;SHT31;53960;51.826;5.850;2023-12-20T06:34:39;7.69;94.98
67054;SHT31;53960;51.826;5.850;2023-12-20T06:37:05;7.61;95.03
67054;SHT31;53960;51.826;5.850;2023-12-20T06:39:30;7.66;94.76
67054;SHT31;53960;51.826;5.850;2023-12-20T06:41:56;7.71;94.29
67054;SHT31;53960;51.826;5.850;2023-12-20T06:44:21;7.68;94.77
67054;SHT31;53960;51.826;5.850;2023-12-20T06:46:46;7.62;94.88
67054;SHT31;53960;51.826;5.850;2023-12-20T06:49:11;7.64;94.81
67054;SHT31;53960;51.826;5.850;2023-12-20T06:51:37;7.66;94.45
67054;SHT31;53960;51.826;5.850;2023-12-20T06:54:03;7.65;94.61
67054;SHT31;53960;51.826;5.850;2023-12-20T06:56:28;7.65;94.33
67054;SHT31;53960;51.826;5.850;2023-12-20T06:58:53;7.62;94.91
67054;SHT31;53960;51.826;5.850;2023-12-20T07:01:19;7.65;94.59
67054;SHT31;53960;51.826;5.850;2023-12-20T07:03:44;7.68;94.74
67054;SHT31;53960;51.826;5.850;2023-12-20T07:06:10;7.68;94.09
67054;SHT31;53960;51.826;5.850;2023-12-20T07:08:35;7.71;93.87
67054;SHT31;53960;51.826;5.850;2023-12-20T07:11:00;7.66;94.20
67054;SHT31;53960;51.826;5.850;2023-12-20T07:13:26;7.66;94.39
67054;SHT31;53960;51.826;5.850;2023-12-20T07:15:51;7.68;94.53
67054;SHT31;53960;51.826;5.850;2023-12-20T07:18:16;7.65;94.59
67054;SHT31;53960;51.826;5.850;2023-12-20T07:20:42;7.65;94.65
67054;SHT31;53960;51.826;5.850;2023-12-20T07:23:08;7.65;94.72
67054;SHT31;53960;51.826;5.850;2023-12-20T07:25:34;7.65;94.90
67054;SHT31;53960;51.826;5.850;2023-12-20T07:27:59;7.65;94.66
67054;SHT31;53960;51.826;5.850;2023-12-20T07:30:24;7.62;95.00
67054;SHT31;53960;51.826;5.850;2023-12-20T07:32:50;7.64;94.95
67054;SHT31;53960;51.826;5.850;2023-12-20T07:35:15;7.62;95.01
67054;SHT31;53960;51.826;5.850;2023-12-20T07:37:41;7.61;95.10
67054;SHT31;53960;51.826;5.850;2023-12-20T07:40:07;7.59;95.30
67054;SHT31;53960;51.826;5.850;2023-12-20T07:42:33;7.55;95.39
67054;SHT31;53960;51.826;5.850;2023-12-20T07:44:58;7.59;95.14
67054;SHT31;53960;51.826;5.850;2023-12-20T07:47:23;7.59;95.39
67054;SHT31;53960;51.826;5.850;2023-12-20T07:49:50;7.59;95.56
67054;SHT31;53960;51.826;5.850;2023-12-20T07:52:17;7.57;95.40
67054;SHT31;53960;51.826;5.850;2023-12-20T07:54:43;7.59;95.36
67054;SHT31;53960;51.826;5.850;2023-12-20T07:57:10;7.62;95.50
67054;SHT31;53960;51.826;5.850;2023-12-20T07:59:35;7.62;95.44
67054;SHT31;53960;51.826;5.850;2023-12-20T08:02:01;7.57;95.63
67054;SHT31;53960;51.826;5.850;2023-12-20T08:04:26;7.58;95.51
67054;SHT31;53960;51.826;5.850;2023-12-20T08:06:52;7.59;95.39
67054;SHT31;53960;51.826;5.850;2023-12-20T08:09:17;7.62;95.61
67054;SHT31;53960;51.826;5.850;2023-12-20T08:11:46;7.57;95.56
67054;SHT31;53960;51.826;5.850;2023-12-20T08:14:12;7.51;95.64
67054;SHT31;53960;51.826;5.850;2023-12-20T08:16:37;7.50;95.89
67054;SHT31;53960;51.826;5.850;2023-12-20T08:19:03;7.50;95.84
67054;SHT31;53960;51.826;5.850;2023-12-20T08:21:28;7.51;95.80
67054;SHT31;53960;51.826;5.850;2023-12-20T08:23:54;7.55;95.79
67054;SHT31;53960;51.826;5.850;2023-12-20T08:26:19;7.51;95.74
67054;SHT31;53960;51.826;5.850;2023-12-20T08:28:46;7.50;95.92
67054;SHT31;53960;51.826;5.850;2023-12-20T08:31:15;7.54;95.80
67054;SHT31;53960;51.826;5.850;2023-12-20T08:33:43;7.54;95.80
67054;SHT31;53960;51.826;5.850;2023-12-20T08:36:08;7.57;95.52
67054;SHT31;53960;51.826;5.850;2023-12-20T08:38:33;7.59;95.45
67054;SHT31;53960;51.826;5.850;2023-12-20T08:40:59;7.52;95.71
67054;SHT31;53960;51.826;5.850;2023-12-20T08:43:24;7.54;95.60
67054;SHT31;53960;51.826;5.850;2023-12-20T08:45:49;7.55;95.80
67054;SHT31;53960;51.826;5.850;2023-12-20T08:48:15;7.55;95.48
67054;SHT31;53960;51.826;5.850;2023-12-20T08:50:40;7.52;95.62
67054;SHT31;53960;51.826;5.850;2023-12-20T08:53:05;7.55;95.62
67054;SHT31;53960;51.826;5.850;2023-12-20T08:55:31;7.51;95.78
67054;SHT31;53960;51.826;5.850;2023-12-20T08:57:56;7.54;95.57
67054;SHT31;53960;51.826;5.850;2023-12-20T09:00:22;7.54;95.69
67054;SHT31;53960;51.826;5.850;2023-12-20T09:02:49;7.52;95.47
67054;SHT31;53960;51.826;5.850;2023-12-20T09:05:15;7.57;95.39
67054;SHT31;53960;51.826;5.850;2023-12-20T09:07:40;7.54;95.41
67054;SHT31;53960;51.826;5.850;2023-12-20T09:10:06;7.51;95.47
67054;SHT31;53960;51.826;5.850;2023-12-20T09:12:31;7.54;95.44
67054;SHT31;53960;51.826;5.850;2023-12-20T09:14:57;7.55;95.51
67054;SHT31;53960;51.826;5.850;2023-12-20T09:17:22;7.57;95.56
67054;SHT31;53960;51.826;5.850;2023-12-20T09:19:50;7.55;95.49
67054;SHT31;53960;51.826;5.850;2023-12-20T09:22:17;7.54;95.70
67054;SHT31;53960;51.826;5.850;2023-12-20T09:24:43;7.51;95.53
67054;SHT31;53960;51.826;5.850;2023-12-20T09:27:08;7.51;95.68
67054;SHT31;53960;51.826;5.850;2023-12-20T09:29:34;7.59;95.61
67054;SHT31;53960;51.826;5.850;2023-12-20T09:31:59;7.61;95.51
67054;SHT31;53960;51.826;5.850;2023-12-20T09:34:24;7.64;95.36
67054;SHT31;53960;51.826;5.850;2023-12-20T09:36:51;7.64;95.55
67054;SHT31;53960;51.826;5.850;2023-12-20T09:39:18;7.57;95.96
67054;SHT31;53960;51.826;5.850;2023-12-20T09:42:05;7.52;96.45
67054;SHT31;53960;51.826;5.850;2023-12-20T09:44:32;7.55;96.53
67054;SHT31;53960;51.826;5.850;2023-12-20T09:47:02;7.57;96.59
67054;SHT31;53960;51.826;5.850;2023-12-20T09:49:27;7.59;96.81
67054;SHT31;53960;51.826;5.850;2023-12-20T09:51:53;7.69;96.25
67054;SHT31;53960;51.826;5.850;2023-12-20T09:54:20;7.64;96.42
67054;SHT31;53960;51.826;5.850;2023-12-20T09:56:46;7.62;96.65
67054;SHT31;53960;51.826;5.850;2023-12-20T09:59:12;7.59;96.82
67054;SHT31;53960;51.826;5.850;2023-12-20T10:01:41;7.68;96.66
67054;SHT31;53960;51.826;5.850;2023-12-20T10:04:09;7.66;96.69
67054;SHT31;53960;51.826;5.850;2023-12-20T10:06:40;7.76;96.60
67054;SHT31;53960;51.826;5.850;2023-12-20T10:09:05;7.71;96.81
67054;SHT31;53960;51.826;5.850;2023-12-20T10:11:31;7.81;96.18
67054;SHT31;53960;51.826;5.850;2023-12-20T10:14:00;7.81;96.28
67054;SHT31;53960;51.826;5.850;2023-12-20T10:16:29;7.83;96.14
67054;SHT31;53960;51.826;5.850;2023-12-20T10:18:55;7.79;96.26
67054;SHT31;53960;51.826;5.850;2023-12-20T10:21:22;7.82;96.19
67054;SHT31;53960;51.826;5.850;2023-12-20T10:23:48;7.89;95.97
67054;SHT31;53960;51.826;5.850;2023-12-20T10:26:22;7.95;96.10
67054;SHT31;53960;51.826;5.850;2023-12-20T10:28:53;8.02;95.43
67054;SHT31;53960;51.826;5.850;2023-12-20T10:31:32;7.99;95.79
67054;SHT31;53960;51.826;5.850;2023-12-20T10:33:58;8.00;96.08
67054;SHT31;53960;51.826;5.850;2023-12-20T10:36:25;7.99;96.12
67054;SHT31;53960;51.826;5.850;2023-12-20T10:38:52;7.99;96.09
67054;SHT31;53960;51.826;5.850;2023-12-20T10:41:24;7.92;96.39
67054;SHT31;53960;51.826;5.850;2023-12-20T10:43:51;7.88;96.60
67054;SHT31;53960;51.826;5.850;2023-12-20T10:46:19;7.90;96.69
67054;SHT31;53960;51.826;5.850;2023-12-20T10:48:45;7.96;96.61
67054;SHT31;53960;51.826;5.850;2023-12-20T10:51:13;7.95;96.59
67054;SHT31;53960;51.826;5.850;2023-12-20T10:53:40;8.06;96.31
67054;SHT31;53960;51.826;5.850;2023-12-20T10:56:08;8.05;96.39
67054;SHT31;53960;51.826;5.850;2023-12-20T10:58:34;8.07;96.42
67054;SHT31;53960;51.826;5.850;2023-12-20T11:01:01;8.06;96.62
67054;SHT31;53960;51.826;5.850;2023-12-20T11:03:32;8.06;96.82
67054;SHT31;53960;51.826;5.850;2023-12-20T11:06:03;8.10;96.62
67054;SHT31;53960;51.826;5.850;2023-12-20T11:08:38;8.13;96.67
67054;SHT31;53960;51.826;5.850;2023-12-20T11:14:06;8.16;96.51
67054;SHT31;53960;51.826;5.850;2023-12-20T11:16:37;8.19;96.62
67054;SHT31;53960;51.826;5.850;2023-12-20T11:19:05;8.23;96.35
67054;SHT31;53960;51.826;5.850;2023-12-20T11:21:31;8.25;96.46
67054;SHT31;53960;51.826;5.850;2023-12-20T11:23:56;8.30;96.13
67054;SHT31;53960;51.826;5.850;2023-12-20T11:26:29;8.33;96.09
67054;SHT31;53960;51.826;5.850;2023-12-20T11:29:22;8.40;96.01
67054;SHT31;53960;51.826;5.850;2023-12-20T11:31:40;8.44;95.73
67054;SHT31;53960;51.826;5.850;2023-12-20T11:34:13;8.46;95.52
67054;SHT31;53960;51.826;5.850;2023-12-20T11:36:39;8.47;95.61
67054;SHT31;53960;51.826;5.850;2023-12-20T11:39:05;8.54;95.00
67054;SHT31;53960;51.826;5.850;2023-12-20T11:41:33;8.48;95.48
67054;SHT31;53960;51.826;5.850;2023-12-20T11:43:59;8.47;95.59
67054;SHT31;53960;51.826;5.850;2023-12-20T11:46:26;8.53;95.19
67054;SHT31;53960;51.826;5.850;2023-12-20T11:48:51;8.50;95.67
67054;SHT31;53960;51.826;5.850;2023-12-20T11:51:17;8.46;95.76
67054;SHT31;53960;51.826;5.850;2023-12-20T11:53:42;8.44;96.05
67054;SHT31;53960;51.826;5.850;2023-12-20T11:56:09;8.54;95.98
67054;SHT31;53960;51.826;5.850;2023-12-20T11:58:34;8.58;96.00
67054;SHT31;53960;51.826;5.850;2023-12-20T12:01:00;8.63;95.91
67054;SHT31;53960;51.826;5.850;2023-12-20T12:03:27;8.67;95.40
67054;SHT31;53960;51.826;5.850;2023-12-20T12:05:53;8.61;95.58
67054;SHT31;53960;51.826;5.850;2023-12-20T12:08:19;8.63;95.54
67054;SHT31;53960;51.826;5.850;2023-12-20T12:10:45;8.68;95.35
67054;SHT31;53960;51.826;5.850;2023-12-20T12:13:10;8.68;95.61
67054;SHT31;53960;51.826;5.850;2023-12-20T12:15:36;8.64;95.56
67054;SHT31;53960;51.826;5.850;2023-12-20T12:18:03;8.69;95.99
67054;SHT31;53960;51.826;5.850;2023-12-20T12:20:28;8.69;96.11
67054;SHT31;53960;51.826;5.850;2023-12-20T12:23:04;8.71;96.07
67054;SHT31;53960;51.826;5.850;2023-12-20T12:25:31;8.67;96.05
67054;SHT31;53960;51.826;5.850;2023-12-20T12:27:58;8.72;96.01
67054;SHT31;53960;51.826;5.850;2023-12-20T12:30:23;8.71;96.30
67054;SHT31;53960;51.826;5.850;2023-12-20T12:32:50;8.71;96.51
67054;SHT31;53960;51.826;5.850;2023-12-20T12:35:16;8.71;96.44
67054;SHT31;53960;51.826;5.850;2023-12-20T12:37:41;8.72;96.64
67054;SHT31;53960;51.826;5.850;2023-12-20T12:40:10;8.68;96.36
67054;SHT31;53960;51.826;5.850;2023-12-20T12:42:39;8.72;96.75
67054;SHT31;53960;51.826;5.850;2023-12-20T12:45:04;8.79;96.36
67054;SHT31;53960;51.826;5.850;2023-12-20T12:47:30;8.78;96.42
67054;SHT31;53960;51.826;5.850;2023-12-20T12:49:56;8.82;96.42
67054;SHT31;53960;51.826;5.850;2023-12-20T12:52:21;8.82;96.06
67054;SHT31;53960;51.826;5.850;2023-12-20T12:54:47;8.82;96.09
67054;SHT31;53960;51.826;5.850;2023-12-20T12:57:14;8.74;96.46
67054;SHT31;53960;51.826;5.850;2023-12-20T12:59:39;8.71;96.65
67054;SHT31;53960;51.826;5.850;2023-12-20T13:02:05;8.69;96.63
67054;SHT31;53960;51.826;5.850;2023-12-20T13:04:30;8.72;96.71
67054;SHT31;53960;51.826;5.850;2023-12-20T13:06:56;8.69;96.85
67054;SHT31;53960;51.826;5.850;2023-12-20T13:09:22;8.71;96.83
67054;SHT31;53960;51.826;5.850;2023-12-20T13:11:48;8.74;96.95
67054;SHT31;53960;51.826;5.850;2023-12-20T13:14:13;8.79;96.55
67054;SHT31;53960;51.826;5.850;2023-12-20T13:16:41;8.77;96.74
67054;SHT31;53960;51.826;5.850;2023-12-20T13:19:06;8.74;96.93
67054;SHT31;53960;51.826;5.850;2023-12-20T13:21:32;8.78;96.82
67054;SHT31;53960;51.826;5.850;2023-12-20T13:23:57;8.77;96.92
67054;SHT31;53960;51.826;5.850;2023-12-20T13:26:22;8.79;96.49
67054;SHT31;53960;51.826;5.850;2023-12-20T13:28:48;8.81;96.70
67054;SHT31;53960;51.826;5.850;2023-12-20T13:31:13;8.75;97.12
67054;SHT31;53960;51.826;5.850;2023-12-20T13:33:38;8.71;97.30
67054;SHT31;53960;51.826;5.850;2023-12-20T13:36:05;8.74;97.35
67054;SHT31;53960;51.826;5.850;2023-12-20T13:38:31;8.77;96.95
67054;SHT31;53960;51.826;5.850;2023-12-20T13:40:56;8.77;96.97
67054;SHT31;53960;51.826;5.850;2023-12-20T13:43:23;8.78;96.83
67054;SHT31;53960;51.826;5.850;2023-12-20T13:45:49;8.72;97.05
67054;SHT31;53960;51.826;5.850;2023-12-20T13:48:15;8.75;97.14
67054;SHT31;53960;51.826;5.850;2023-12-20T13:50:40;8.77;97.14
67054;SHT31;53960;51.826;5.850;2023-12-20T13:53:05;8.79;96.96
67054;SHT31;53960;51.826;5.850;2023-12-20T13:55:31;8.82;96.95
67054;SHT31;53960;51.826;5.850;2023-12-20T13:57:56;8.81;96.96
67054;SHT31;53960;51.826;5.850;2023-12-20T14:00:22;8.86;96.76
67054;SHT31;53960;51.826;5.850;2023-12-20T14:02:48;8.88;96.63
67054;SHT31;53960;51.826;5.850;2023-12-20T14:05:15;8.86;96.94
67054;SHT31;53960;51.826;5.850;2023-12-20T14:07:43;8.85;96.96
67054;SHT31;53960;51.826;5.850;2023-12-20T14:10:10;8.89;96.96
67054;SHT31;53960;51.826;5.850;2023-12-20T14:12:36;8.88;97.02
67054;SHT31;53960;51.826;5.850;2023-12-20T14:15:03;8.86;97.15
67054;SHT31;53960;51.826;5.850;2023-12-20T14:17:29;8.89;96.92
67054;SHT31;53960;51.826;5.850;2023-12-20T14:19:54;8.89;96.99
67054;SHT31;53960;51.826;5.850;2023-12-20T14:22:20;8.98;96.43
67054;SHT31;53960;51.826;5.850;2023-12-20T14:24:45;9.06;96.39
67054;SHT31;53960;51.826;5.850;2023-12-20T14:27:11;9.01;96.22
67054;SHT31;53960;51.826;5.850;2023-12-20T14:29:36;9.05;96.11
67054;SHT31;53960;51.826;5.850;2023-12-20T14:32:03;9.08;95.99
67054;SHT31;53960;51.826;5.850;2023-12-20T14:34:29;9.06;95.99
67054;SHT31;53960;51.826;5.850;2023-12-20T14:36:54;9.16;95.52
67054;SHT31;53960;51.826;5.850;2023-12-20T14:39:20;9.11;95.35
67054;SHT31;53960;51.826;5.850;2023-12-20T14:41:46;9.08;95.55
67054;SHT31;53960;51.826;5.850;2023-12-20T14:44:11;9.09;95.31
67054;SHT31;53960;51.826;5.850;2023-12-20T14:46:36;9.12;95.30
67054;SHT31;53960;51.826;5.850;2023-12-20T14:49:05;9.14;95.37
67054;SHT31;53960;51.826;5.850;2023-12-20T14:51:30;9.15;95.04
67054;SHT31;53960;51.826;5.850;2023-12-20T14:53:55;9.09;95.21
67054;SHT31;53960;51.826;5.850;2023-12-20T14:56:23;9.09;95.15
67054;SHT31;53960;51.826;5.850;2023-12-20T14:58:49;9.09;95.06
67054;SHT31;53960;51.826;5.850;2023-12-20T15:01:14;9.05;95.12
67054;SHT31;53960;51.826;5.850;2023-12-20T15:03:40;9.04;95.11
67054;SHT31;53960;51.826;5.850;2023-12-20T15:06:06;9.15;94.75
67054;SHT31;53960;51.826;5.850;2023-12-20T15:08:32;9.09;94.52
67054;SHT31;53960;51.826;5.850;2023-12-20T15:10:57;9.18;94.36
67054;SHT31;53960;51.826;5.850;2023-12-20T15:13:24;9.15;94.25
67054;SHT31;53960;51.826;5.850;2023-12-20T15:15:49;9.12;94.50
67054;SHT31;53960;51.826;5.850;2023-12-20T15:18:15;9.18;94.12
67054;SHT31;53960;51.826;5.850;2023-12-20T15:20:40;9.14;94.33
67054;SHT31;53960;51.826;5.850;2023-12-20T15:23:06;9.08;94.58
67054;SHT31;53960;51.826;5.850;2023-12-20T15:25:33;8.96;94.97
67054;SHT31;53960;51.826;5.850;2023-12-20T15:27:58;8.93;95.07
67054;SHT31;53960;51.826;5.850;2023-12-20T15:30:23;9.04;94.58
67054;SHT31;53960;51.826;5.850;2023-12-20T15:32:50;9.01;94.44
67054;SHT31;53960;51.826;5.850;2023-12-20T15:35:16;8.99;94.70
67054;SHT31;53960;51.826;5.850;2023-12-20T15:37:42;9.08;94.39
67054;SHT31;53960;51.826;5.850;2023-12-20T15:40:08;9.08;94.34